createdAt,value
2022-08-20T00:00:19.290Z,99.90
2022-08-20T00:03:23.358Z,99.90
2022-08-20T00:05:55.988Z,99.90
2022-08-20T00:08:24.225Z,99.90
2022-08-20T00:10:55.709Z,99.90
2022-08-20T00:13:31.496Z,99.90
2022-08-20T00:15:58.523Z,99.90
2022-08-20T00:18:30.402Z,99.90
2022-08-20T00:20:58.300Z,99.90
2022-08-20T00:23:29.933Z,99.90
2022-08-20T00:25:56.835Z,99.90
2022-08-20T00:28:23.696Z,99.90
2022-08-20T00:30:50.642Z,99.90
2022-08-20T00:33:27.974Z,99.90
2022-08-20T00:36:08.379Z,99.90
2022-08-20T00:38:38.941Z,99.90
2022-08-20T00:41:11.557Z,99.90
2022-08-20T00:43:45.289Z,99.90
2022-08-20T00:46:21.081Z,99.90
2022-08-20T00:49:14.846Z,99.90
2022-08-20T00:55:22.709Z,99.90
2022-08-20T00:58:02.141Z,99.90
2022-08-20T01:00:47.112Z,99.90
2022-08-20T01:03:17.787Z,99.90
2022-08-20T01:05:47.955Z,99.90
2022-08-20T01:08:17.243Z,99.90
2022-08-20T01:10:48.212Z,99.90
2022-08-20T01:13:20.800Z,99.90
2022-08-20T01:15:51.634Z,99.90
2022-08-20T01:18:25.259Z,99.90
2022-08-20T01:20:57.768Z,99.90
2022-08-20T01:23:44.705Z,99.90
2022-08-20T01:26:18.953Z,99.90
2022-08-20T01:28:48.037Z,99.90
2022-08-20T01:31:18.430Z,99.90
2022-08-20T01:33:52.516Z,99.90
2022-08-20T01:36:44.242Z,99.90
2022-08-20T01:39:19.717Z,99.90
2022-08-20T01:42:11.478Z,99.90
2022-08-20T01:45:26.893Z,99.90
2022-08-20T01:48:35.713Z,99.90
2022-08-20T01:51:09.247Z,99.90
2022-08-20T01:54:20.867Z,99.90
2022-08-20T01:57:20.075Z,99.90
2022-08-20T01:59:50.031Z,99.90
2022-08-20T02:02:16.997Z,99.90
2022-08-20T02:04:44.210Z,99.90
2022-08-20T02:07:18.262Z,99.90
2022-08-20T02:09:45.655Z,99.90
2022-08-20T02:12:14.359Z,99.90
2022-08-20T02:14:47.618Z,99.90
2022-08-20T02:17:15.023Z,99.90
2022-08-20T02:19:46.685Z,99.90
2022-08-20T02:22:38.510Z,99.90
2022-08-20T02:25:09.202Z,99.90
2022-08-20T02:31:09.770Z,99.90
2022-08-20T02:34:21.634Z,99.90
2022-08-20T02:36:33.221Z,99.90
2022-08-20T02:39:00.124Z,99.90
2022-08-20T02:41:27.027Z,99.90
2022-08-20T02:43:53.943Z,99.90
2022-08-20T02:46:36.583Z,99.90
2022-08-20T02:49:19.926Z,99.90
2022-08-20T02:51:46.959Z,99.90
2022-08-20T02:54:14.445Z,99.90
2022-08-20T02:56:42.046Z,99.90
2022-08-20T02:59:08.995Z,99.90
2022-08-20T03:01:39.620Z,99.90
2022-08-20T03:04:06.962Z,99.90
2022-08-20T03:06:33.841Z,99.90
2022-08-20T03:09:00.853Z,99.90
2022-08-20T03:11:27.697Z,99.90
2022-08-20T03:13:54.565Z,99.90
2022-08-20T03:16:21.832Z,99.90
2022-08-20T03:18:52.009Z,99.90
2022-08-20T03:21:21.270Z,99.90
2022-08-20T03:23:48.367Z,99.90
2022-08-20T03:26:16.458Z,99.90
2022-08-20T03:28:43.871Z,99.90
2022-08-20T03:31:14.954Z,99.90
2022-08-20T03:33:48.847Z,99.90
2022-08-20T03:36:26.698Z,99.90
2022-08-20T03:39:17.833Z,99.90
2022-08-20T03:41:44.743Z,99.90
2022-08-20T03:44:11.676Z,99.90
2022-08-20T03:46:53.571Z,99.90
2022-08-20T03:49:20.605Z,99.90
2022-08-20T03:51:57.950Z,99.90
2022-08-20T03:54:27.306Z,99.90
2022-08-20T03:57:29.029Z,99.90
2022-08-20T04:01:36.890Z,99.90
2022-08-20T04:04:52.840Z,99.90
2022-08-20T04:07:27.669Z,99.90
2022-08-20T04:10:05.426Z,99.90
2022-08-20T04:12:32.414Z,99.90
2022-08-20T04:15:02.200Z,99.90
2022-08-20T04:17:32.515Z,99.90
2022-08-20T04:19:59.588Z,99.90
2022-08-20T04:22:26.564Z,99.90
2022-08-20T04:24:56.049Z,99.90
2022-08-20T04:27:22.890Z,99.90
2022-08-20T04:29:49.856Z,99.90
2022-08-20T04:32:17.010Z,99.90
2022-08-20T04:34:56.436Z,99.90
2022-08-20T04:37:23.625Z,99.90
2022-08-20T04:40:09.752Z,99.90
2022-08-20T04:42:37.636Z,99.90
2022-08-20T04:45:06.969Z,99.90
2022-08-20T04:47:35.039Z,99.90
2022-08-20T04:50:02.106Z,99.90
2022-08-20T04:52:29.423Z,99.90
2022-08-20T04:54:58.966Z,99.90
2022-08-20T04:57:26.443Z,99.90
2022-08-20T04:59:59.299Z,99.90
2022-08-20T05:02:26.433Z,99.90
2022-08-20T05:04:53.278Z,99.90
2022-08-20T05:07:20.326Z,99.90
2022-08-20T05:09:47.166Z,99.90
2022-08-20T05:12:18.115Z,99.90
2022-08-20T05:14:45.040Z,99.90
2022-08-20T05:17:14.631Z,99.90
2022-08-20T05:19:42.221Z,99.90
2022-08-20T05:22:09.026Z,99.90
2022-08-20T05:24:45.480Z,99.90
2022-08-20T05:27:19.853Z,99.90
2022-08-20T05:29:53.398Z,99.90
2022-08-20T05:32:22.562Z,99.90
2022-08-20T05:35:02.180Z,99.90
2022-08-20T05:37:47.155Z,99.90
2022-08-20T05:40:15.052Z,99.90
2022-08-20T05:43:02.166Z,99.90
2022-08-20T05:48:28.278Z,99.90
2022-08-20T05:51:02.996Z,99.90
2022-08-20T05:53:29.991Z,99.90
2022-08-20T05:55:56.864Z,99.90
2022-08-20T05:58:29.292Z,99.90
2022-08-20T06:00:56.327Z,99.90
2022-08-20T06:03:41.877Z,99.90
2022-08-20T06:06:20.701Z,99.90
2022-08-20T06:08:56.974Z,99.90
2022-08-20T06:11:23.900Z,99.90
2022-08-20T06:13:50.842Z,99.90
2022-08-20T06:16:17.779Z,99.90
2022-08-20T06:18:44.775Z,99.90
2022-08-20T06:21:14.721Z,99.90
2022-08-20T06:23:56.963Z,99.90
2022-08-20T06:26:30.984Z,99.90
2022-08-20T06:29:06.903Z,99.90
2022-08-20T06:31:35.107Z,99.90
2022-08-20T06:34:02.014Z,99.90
2022-08-20T06:36:28.961Z,99.90
2022-08-20T06:38:58.381Z,99.90
2022-08-20T06:41:32.602Z,99.90
2022-08-20T06:44:03.768Z,99.90
2022-08-20T06:46:30.533Z,99.90
2022-08-20T06:48:59.569Z,99.90
2022-08-20T06:51:26.455Z,99.90
2022-08-20T06:53:53.709Z,99.90
2022-08-20T06:56:20.869Z,99.90
2022-08-20T06:58:50.509Z,99.90
2022-08-20T07:01:27.355Z,99.90
2022-08-20T07:03:59.656Z,99.90
2022-08-20T07:06:27.022Z,99.90
2022-08-20T07:08:55.752Z,99.90
2022-08-20T07:11:27.661Z,99.90
2022-08-20T07:13:59.686Z,99.90
2022-08-20T07:16:27.342Z,99.90
2022-08-20T07:18:58.404Z,99.90
2022-08-20T07:21:25.900Z,99.90
2022-08-20T07:23:53.469Z,99.90
2022-08-20T07:26:20.459Z,99.90
2022-08-20T07:28:47.367Z,99.90
2022-08-20T07:31:34.897Z,99.90
2022-08-20T07:34:02.832Z,99.90
2022-08-20T07:36:30.162Z,99.90
2022-08-20T07:38:57.592Z,99.90
2022-08-20T07:41:24.975Z,99.90
2022-08-20T07:43:52.132Z,99.90
2022-08-20T07:46:21.892Z,99.90
2022-08-20T07:48:54.533Z,99.90
2022-08-20T07:51:22.554Z,99.90
2022-08-20T07:53:51.873Z,99.90
2022-08-20T07:56:24.374Z,99.90
2022-08-20T07:58:55.612Z,99.90
2022-08-20T08:01:30.012Z,99.90
2022-08-20T08:04:05.151Z,99.90
2022-08-20T08:06:32.255Z,99.90
2022-08-20T08:09:06.059Z,99.90
2022-08-20T08:11:37.906Z,99.90
2022-08-20T08:19:01.275Z,99.90
2022-08-20T08:21:53.847Z,99.90
2022-08-20T08:24:24.309Z,99.90
2022-08-20T08:26:53.507Z,99.90
2022-08-20T08:29:23.558Z,99.90
2022-08-20T08:35:09.310Z,99.90
2022-08-20T08:38:19.781Z,99.90
2022-08-20T08:40:48.482Z,99.90
2022-08-20T08:53:56.676Z,99.90
2022-08-20T08:56:34.188Z,99.90
2022-08-20T08:59:20.649Z,99.90
2022-08-20T09:02:05.885Z,99.90
2022-08-20T09:12:12.285Z,99.90
2022-08-20T09:15:19.948Z,99.90
2022-08-20T09:17:46.916Z,99.90
2022-08-20T09:20:13.977Z,99.90
2022-08-20T09:22:41.258Z,99.90
2022-08-20T09:25:19.504Z,99.90
2022-08-20T09:27:49.275Z,99.90
2022-08-20T09:30:44.142Z,99.90
2022-08-20T09:33:12.959Z,99.90
2022-08-20T09:35:42.898Z,99.90
2022-08-20T09:38:09.830Z,99.90
2022-08-20T09:40:39.409Z,99.90
2022-08-20T09:43:10.974Z,99.90
2022-08-20T09:45:40.163Z,99.90
2022-08-20T09:48:10.150Z,99.90
2022-08-20T09:50:41.397Z,99.90
2022-08-20T09:53:08.293Z,99.90
2022-08-20T09:55:41.937Z,99.90
2022-08-20T09:58:32.771Z,99.90
2022-08-20T10:01:04.314Z,99.90
2022-08-20T10:03:31.076Z,99.90
2022-08-20T10:06:00.136Z,99.90
2022-08-20T10:08:27.182Z,99.90
2022-08-20T10:10:57.526Z,99.90
2022-08-20T10:13:26.627Z,99.90
2022-08-20T10:15:53.428Z,99.90
2022-08-20T10:18:22.690Z,99.90
2022-08-20T10:20:51.756Z,99.90
2022-08-20T10:23:18.505Z,99.90
2022-08-20T10:25:45.313Z,99.90
2022-08-20T10:28:12.465Z,99.90
2022-08-20T10:30:39.215Z,99.90
2022-08-20T10:33:06.508Z,99.90
2022-08-20T10:35:35.900Z,99.90
2022-08-20T10:38:04.984Z,99.90
2022-08-20T10:40:31.828Z,99.90
2022-08-20T10:42:58.725Z,99.90
2022-08-20T10:45:25.843Z,99.90
2022-08-20T10:47:52.754Z,99.90
2022-08-20T10:50:21.920Z,99.90
2022-08-20T10:52:48.677Z,99.90
2022-08-20T10:55:18.147Z,99.90
2022-08-20T10:57:45.265Z,99.90
2022-08-20T11:00:19.291Z,99.90
2022-08-20T11:02:46.297Z,99.90
2022-08-20T11:05:13.157Z,99.90
2022-08-20T11:07:55.791Z,99.90
2022-08-20T11:10:28.042Z,99.90
2022-08-20T11:12:55.360Z,99.90
2022-08-20T11:15:24.338Z,99.90
2022-08-20T11:17:51.174Z,99.90
2022-08-20T11:20:21.474Z,99.90
2022-08-20T11:22:48.288Z,99.90
2022-08-20T11:25:19.735Z,99.90
2022-08-20T11:27:49.040Z,99.90
2022-08-20T11:30:23.724Z,99.90
2022-08-20T11:32:50.541Z,99.90
2022-08-20T11:38:10.932Z,99.90
2022-08-20T11:40:37.808Z,99.90
2022-08-20T11:43:20.051Z,99.90
2022-08-20T11:45:52.600Z,99.90
2022-08-20T11:48:19.612Z,99.90
2022-08-20T11:50:47.850Z,99.90
2022-08-20T11:53:15.525Z,99.90
2022-08-20T11:55:43.141Z,99.90
2022-08-20T11:58:14.371Z,99.90
2022-08-20T12:00:41.286Z,99.90
2022-08-20T12:03:09.753Z,99.90
2022-08-20T12:05:45.925Z,99.90
2022-08-20T12:08:25.292Z,99.90
2022-08-20T12:10:59.014Z,99.90
2022-08-20T12:13:48.464Z,99.90
2022-08-20T12:16:19.512Z,99.70
2022-08-20T12:18:47.462Z,99.80
2022-08-20T12:21:15.114Z,99.10
2022-08-20T12:23:41.953Z,98.70
2022-08-20T12:26:08.804Z,98.70
2022-08-20T12:28:35.602Z,98.50
2022-08-20T12:31:02.463Z,97.90
2022-08-20T12:33:29.228Z,97.60
2022-08-20T12:35:57.450Z,98.30
2022-08-20T12:38:24.249Z,97.90
2022-08-20T12:40:51.095Z,97.20
2022-08-20T12:43:20.585Z,96.80
2022-08-20T12:45:53.925Z,97.30
2022-08-20T12:48:21.188Z,97.10
2022-08-20T12:50:50.238Z,96.80
2022-08-20T12:53:18.570Z,96.90
2022-08-20T12:55:46.093Z,97.00
2022-08-20T12:58:13.062Z,97.10
2022-08-20T13:00:46.520Z,97.50
2022-08-20T13:03:20.984Z,97.60
2022-08-20T13:05:49.052Z,96.90
2022-08-20T13:08:28.042Z,96.20
2022-08-20T13:10:55.097Z,94.80
2022-08-20T13:16:27.539Z,95.50
2022-08-20T13:29:48.314Z,84.70
2022-08-20T13:32:15.437Z,81.40
2022-08-20T13:34:42.362Z,81.70
2022-08-20T13:37:26.978Z,82.30
2022-08-20T13:39:55.140Z,83.00
2022-08-20T13:42:22.229Z,80.10
2022-08-20T13:44:49.622Z,79.90
2022-08-20T13:47:23.062Z,79.30
2022-08-20T13:49:56.118Z,77.70
2022-08-20T13:52:25.709Z,75.40
2022-08-20T13:54:53.053Z,74.50
2022-08-20T13:57:21.426Z,74.40
2022-08-20T13:59:51.143Z,71.30
2022-08-20T14:02:18.101Z,69.00
2022-08-20T14:04:46.380Z,66.60
2022-08-20T14:07:22.223Z,67.60
2022-08-20T14:09:54.195Z,68.50
2022-08-20T14:12:23.175Z,67.60
2022-08-20T14:14:51.835Z,65.10
2022-08-20T14:17:31.586Z,63.40
2022-08-20T14:20:07.714Z,61.40
2022-08-20T14:22:36.758Z,59.80
2022-08-20T14:25:05.874Z,60.70
2022-08-20T14:27:34.077Z,61.10
2022-08-20T14:30:02.616Z,60.90
2022-08-20T14:32:29.708Z,60.60
2022-08-20T14:34:59.126Z,60.00
2022-08-20T14:37:32.935Z,58.70
2022-08-20T14:40:02.331Z,58.00
2022-08-20T14:42:30.067Z,58.10
2022-08-20T14:44:58.770Z,54.70
2022-08-20T14:47:29.018Z,56.20
2022-08-20T14:50:02.228Z,56.80
2022-08-20T14:52:29.792Z,56.70
2022-08-20T14:54:56.629Z,56.70
2022-08-20T14:57:23.917Z,55.90
2022-08-20T14:59:53.335Z,55.00
2022-08-20T15:02:20.319Z,53.40
2022-08-20T15:04:52.261Z,53.60
2022-08-20T15:07:32.065Z,54.10
2022-08-20T15:10:00.555Z,52.80
2022-08-20T15:12:28.336Z,51.30
2022-08-20T15:14:55.272Z,50.90
2022-08-20T15:17:25.326Z,50.40
2022-08-20T15:19:53.191Z,48.30
2022-08-20T15:22:20.706Z,47.50
2022-08-20T15:24:47.669Z,47.40
2022-08-20T15:27:23.467Z,47.00
2022-08-20T15:29:51.419Z,47.00
2022-08-20T15:32:19.878Z,46.60
2022-08-20T15:34:47.286Z,45.40
2022-08-20T15:37:18.504Z,44.30
2022-08-20T15:39:45.644Z,45.90
2022-08-20T15:42:12.992Z,46.60
2022-08-20T15:44:42.174Z,46.80
2022-08-20T15:47:26.226Z,46.90
2022-08-20T15:50:09.360Z,46.80
2022-08-20T15:52:43.348Z,46.50
2022-08-20T15:55:14.770Z,46.80
2022-08-20T15:58:00.768Z,46.90
2022-08-20T16:01:24.386Z,47.30
2022-08-20T16:04:11.208Z,48.00
2022-08-20T16:06:38.375Z,50.60
2022-08-20T16:09:33.793Z,51.30
2022-08-20T16:12:17.761Z,51.60
2022-08-20T16:14:47.680Z,51.10
2022-08-20T16:17:47.131Z,52.20
2022-08-20T16:20:26.431Z,52.70
2022-08-20T16:23:05.210Z,53.80
2022-08-20T16:33:06.797Z,55.50
2022-08-20T16:35:43.790Z,56.40
2022-08-20T16:38:35.729Z,57.10
2022-08-20T16:41:11.930Z,56.30
2022-08-20T16:43:53.546Z,55.50
2022-08-20T16:46:35.004Z,55.50
2022-08-20T16:49:13.284Z,55.20
2022-08-20T16:51:51.674Z,55.00
2022-08-20T16:54:29.335Z,54.70
2022-08-20T16:57:03.963Z,55.50
2022-08-20T16:59:33.996Z,55.10
2022-08-20T17:02:10.453Z,54.70
2022-08-20T17:05:00.054Z,55.20
2022-08-20T17:07:33.447Z,55.20
2022-08-20T17:10:26.031Z,55.30
2022-08-20T17:13:00.713Z,55.50
2022-08-20T17:15:30.614Z,55.50
2022-08-20T17:17:57.498Z,56.20
2022-08-20T17:20:28.041Z,56.80
2022-08-20T17:23:18.355Z,56.90
2022-08-20T17:26:19.510Z,57.30
2022-08-20T17:28:52.537Z,57.50
2022-08-20T17:31:42.082Z,57.80
2022-08-20T17:34:20.388Z,58.80
2022-08-20T17:37:02.268Z,59.20
2022-08-20T17:39:31.577Z,59.00
2022-08-20T17:42:11.103Z,59.40
2022-08-20T17:44:47.944Z,59.80
2022-08-20T17:47:17.422Z,59.90
2022-08-20T17:50:02.600Z,60.10
2022-08-20T17:52:50.021Z,61.00
2022-08-20T17:55:18.045Z,61.50
2022-08-20T17:57:50.373Z,62.10
2022-08-20T18:00:23.466Z,62.20
2022-08-20T18:02:56.921Z,62.40
2022-08-20T18:05:28.698Z,63.10
2022-08-20T18:08:19.748Z,63.30
2022-08-20T18:11:06.043Z,63.60
2022-08-20T18:14:04.193Z,63.50
2022-08-20T18:17:01.611Z,64.00
2022-08-20T18:19:56.395Z,64.70
2022-08-20T18:22:32.625Z,65.30
2022-08-20T18:25:28.055Z,65.50
2022-08-20T18:28:03.871Z,65.70
2022-08-20T18:30:36.686Z,65.90
2022-08-20T18:33:10.184Z,66.30
2022-08-20T18:35:45.521Z,66.50
2022-08-20T18:38:31.720Z,67.30
2022-08-20T18:41:32.644Z,66.90
2022-08-20T18:44:34.209Z,67.00
2022-08-20T18:47:20.870Z,67.40
2022-08-20T18:49:58.274Z,67.60
2022-08-20T18:52:31.710Z,68.20
2022-08-20T18:55:04.965Z,68.50
2022-08-20T18:57:57.438Z,68.60
2022-08-20T19:00:28.696Z,68.90
2022-08-20T19:03:18.619Z,69.10
2022-08-20T19:05:45.301Z,69.30
2022-08-20T19:08:37.504Z,69.50
2022-08-20T19:11:14.926Z,70.00
2022-08-20T19:14:15.512Z,70.20
2022-08-20T19:16:56.990Z,70.40
2022-08-20T19:19:32.834Z,70.70
2022-08-20T19:22:01.979Z,70.90
2022-08-20T19:24:32.615Z,71.30
2022-08-20T19:27:04.437Z,71.40
2022-08-20T19:29:35.686Z,71.90
2022-08-20T19:32:08.662Z,72.10
2022-08-20T19:34:36.612Z,72.50
2022-08-20T19:37:34.890Z,72.80
2022-08-20T19:40:08.182Z,73.30
2022-08-20T19:42:42.981Z,73.70
2022-08-20T19:45:23.965Z,74.00
2022-08-20T19:48:01.200Z,74.20
2022-08-20T19:50:37.547Z,74.70
2022-08-20T19:53:31.757Z,74.90
2022-08-20T19:56:06.419Z,75.10
2022-08-20T19:58:35.329Z,75.60
2022-08-20T20:01:04.161Z,75.90
2022-08-20T20:03:37.813Z,76.30
2022-08-20T20:06:17.559Z,76.40
2022-08-20T20:09:13.655Z,77.10
2022-08-20T20:11:42.006Z,77.20
2022-08-20T20:14:15.035Z,77.30
2022-08-20T20:16:45.715Z,77.60
2022-08-20T20:19:26.285Z,77.90
2022-08-20T20:22:19.004Z,78.10
2022-08-20T20:24:50.737Z,78.20
2022-08-20T20:27:26.612Z,78.40
2022-08-20T20:30:25.933Z,78.90
2022-08-20T20:32:56.758Z,79.40
2022-08-20T20:35:33.319Z,79.80
2022-08-20T20:38:03.815Z,80.10
2022-08-20T20:40:45.232Z,80.40
2022-08-20T20:43:23.900Z,80.70
2022-08-20T20:46:00.710Z,81.10
2022-08-20T20:48:40.233Z,81.10
2022-08-20T20:51:27.179Z,81.60
2022-08-20T20:53:58.529Z,82.10
2022-08-20T20:56:37.739Z,82.90
2022-08-20T20:59:08.474Z,83.50
2022-08-20T21:01:48.321Z,83.70
2022-08-20T21:04:17.831Z,84.00
2022-08-20T21:06:49.278Z,84.50
2022-08-20T21:09:21.366Z,84.90
2022-08-20T21:11:50.882Z,85.30
2022-08-20T21:14:22.810Z,85.60
2022-08-20T21:16:52.510Z,85.70
2022-08-20T21:19:19.424Z,86.70
2022-08-20T21:21:50.586Z,86.80
2022-08-20T21:24:17.383Z,87.20
2022-08-20T21:26:47.012Z,87.40
2022-08-20T21:29:21.047Z,87.60
2022-08-20T21:31:55.655Z,88.00
2022-08-20T21:34:27.203Z,88.50
2022-08-20T21:36:54.234Z,88.90
2022-08-20T21:39:23.034Z,89.30
2022-08-20T21:41:53.601Z,89.60
2022-08-20T21:44:25.998Z,90.00
2022-08-20T21:46:56.410Z,90.30
2022-08-20T21:49:24.867Z,90.50
2022-08-20T21:51:52.211Z,90.60
2022-08-20T21:54:19.895Z,90.80
2022-08-20T21:56:57.420Z,91.00
2022-08-20T21:59:27.853Z,91.30
2022-08-20T22:01:55.136Z,91.50
2022-08-20T22:04:26.882Z,91.70
2022-08-20T22:06:53.765Z,91.90
2022-08-20T22:09:20.546Z,92.10
2022-08-20T22:11:54.673Z,92.40
2022-08-20T22:14:23.465Z,92.70
2022-08-20T22:16:52.786Z,93.00
2022-08-20T22:19:19.631Z,93.30
2022-08-20T22:21:49.464Z,93.40
2022-08-20T22:24:19.311Z,93.50
2022-08-20T22:26:48.543Z,93.70
2022-08-20T22:29:15.611Z,93.90
2022-08-20T22:31:44.961Z,94.00
2022-08-20T22:34:19.038Z,94.20
2022-08-20T22:36:45.990Z,94.50
2022-08-20T22:39:12.807Z,94.80
2022-08-20T22:41:40.178Z,95.10
2022-08-20T22:44:07.329Z,95.30
2022-08-20T22:46:42.497Z,95.50
2022-08-20T22:49:22.417Z,95.60
2022-08-20T22:51:53.805Z,96.00
2022-08-20T22:54:24.584Z,96.20
2022-08-20T22:56:54.991Z,96.70
2022-08-20T22:59:26.853Z,96.50
2022-08-20T23:01:56.564Z,96.80
2022-08-20T23:04:33.294Z,96.90
2022-08-20T23:07:01.685Z,97.10
2022-08-20T23:09:31.664Z,97.30
2022-08-20T23:11:58.709Z,97.40
2022-08-20T23:14:27.391Z,97.60
2022-08-20T23:17:04.964Z,97.70
2022-08-20T23:19:32.587Z,98.10
2022-08-20T23:22:01.463Z,97.90
2022-08-20T23:24:28.300Z,98.10
2022-08-20T23:26:55.395Z,98.40
2022-08-20T23:29:25.819Z,98.60
2022-08-20T23:31:56.822Z,98.80
2022-08-20T23:34:26.790Z,98.80
2022-08-20T23:36:55.274Z,98.90
2022-08-20T23:39:22.722Z,99.00
2022-08-20T23:41:49.687Z,99.10
2022-08-20T23:44:26.053Z,99.40
2022-08-20T23:47:00.044Z,99.50
2022-08-20T23:49:28.168Z,99.70
2022-08-20T23:52:00.414Z,99.90
2022-08-20T23:54:29.202Z,99.90
2022-08-20T23:56:58.436Z,99.90
2022-08-20T23:59:26.121Z,99.90
